Time;durP1;ratioP1;P1;durP2;ratioP2;P2;SDS_P1;SDS_P2;PMS_P1;PMS_P2;Temp;Humidity;BMP_temperature;BMP_pressure;BME280_temperature;BME280_humidity;BME280_pressure;Samples;Min_cycle;Max_cycle;Signal;HPM_P1;HPM_P2
2022/12/18 09:27:28;;;;;;;;;;;;;;;5.35;62.21;98073.09;4216888;27;10281;-78
2022/12/18 09:29:30;;;;;;;;;;;;;;;5.63;61.78;98064.53;4218660;28;5820;-80
2022/12/18 09:31:34;;;;;;;;;;;;;;;5.87;61.38;98055.50;4230032;28;5050;-77
2022/12/18 09:33:36;;;;;;;;;;;;;;;6.04;61.26;98068.88;4227423;28;5679;-78
2022/12/18 09:35:41;;;;;;;;;;;;;;;6.17;61.09;98058.13;4227050;27;5860;-78
2022/12/18 09:37:43;;;;;;;;;;;;;;;6.28;60.87;98059.81;4222490;28;5681;-80
2022/12/18 09:39:46;;;;;;;;;;;;;;;6.43;60.59;98063.69;4223625;28;5769;-81
2022/12/18 09:41:54;;;;;;;;;;;;;;;6.53;60.45;98058.44;4229990;28;5672;-84
2022/12/18 09:44:01;;;;;;;;;;;;;;;6.60;60.21;98067.47;4229995;28;5660;-79
2022/12/18 09:46:08;;;;;;;;;;;;;;;6.68;60.08;98060.56;4224179;27;5806;-85
2022/12/18 09:48:19;;;;;;;;;;;;;;;6.74;60.11;98067.03;4220745;28;5763;-79
2022/12/18 09:50:28;;;;;;;;;;;;;;;6.78;59.85;98057.91;4223935;28;5823;-79
2022/12/18 09:52:36;;;;;;;;;;;;;;;6.81;60.06;98062.91;4218355;28;5912;-75
2022/12/18 09:54:41;;;;;;;;;;;;;;;6.83;59.73;98058.34;4222078;28;6464;-78
2022/12/18 09:56:44;;;;;;;;;;;;;;;6.87;59.75;98056.25;4226270;28;5739;-75
2022/12/18 09:58:53;;;;;;;;;;;;;;;6.88;59.63;98058.75;4220431;28;6474;-75
2022/12/18 10:00:57;;;;;;;;;;;;;;;6.91;59.46;98055.84;4218201;28;5164;-73
2022/12/18 10:03:04;;;;;;;;;;;;;;;6.94;59.34;98052.94;4225053;28;5795;-75
2022/12/18 10:05:11;;;;;;;;;;;;;;;6.96;59.47;98056.25;4224233;28;5754;-75
2022/12/18 10:07:20;;;;;;;;;;;;;;;6.96;59.37;98051.00;4223745;28;5771;-75
2022/12/18 10:09:35;;;;;;;;;;;;;;;6.97;59.22;98055.28;4220734;28;5747;-75
2022/12/18 10:11:44;;;;;;;;;;;;;;;6.95;59.20;98057.22;4228913;28;5676;-74
2022/12/18 10:13:53;;;;;;;;;;;;;;;7.01;59.26;98056.66;4226917;28;5793;-74
2022/12/18 10:16:08;;;;;;;;;;;;;;;7.02;58.82;98060.09;4221709;28;5775;-75
2022/12/18 10:18:30;;;;;;;;;;;;;;;7.02;59.06;98046.97;4221468;28;5949;-74
2022/12/18 10:20:39;;;;;;;;;;;;;;;7.05;58.80;98053.75;4224163;28;5679;-74
2022/12/18 10:22:50;;;;;;;;;;;;;;;7.05;58.73;98059.03;4226915;27;5846;-74
2022/12/18 10:24:59;;;;;;;;;;;;;;;7.05;58.81;98054.59;4221376;28;5660;-74
2022/12/18 10:27:13;;;;;;;;;;;;;;;7.06;58.60;98051.00;4214202;28;5651;-74
2022/12/18 10:29:18;;;;;;;;;;;;;;;7.06;58.70;98050.16;4209294;28;5770;-75
2022/12/18 10:31:24;;;;;;;;;;;;;;;7.07;58.59;98052.66;4208099;28;5773;-74
2022/12/18 10:33:31;;;;;;;;;;;;;;;7.05;58.50;98059.03;4206403;28;5875;-74
2022/12/18 10:35:35;;;;;;;;;;;;;;;7.07;58.36;98052.66;4214907;28;5943;-75
2022/12/18 10:38:01;;;;;;;;;;;;;;;7.05;58.30;98043.25;4213090;28;5818;-74
2022/12/18 10:40:11;;;;;;;;;;;;;;;7.07;58.47;98050.00;4212237;28;5672;-75
2022/12/18 10:42:21;;;;;;;;;;;;;;;7.08;58.04;98048.22;4212332;28;5784;-75
2022/12/18 10:44:25;;;;;;;;;;;;;;;7.08;58.16;98048.22;4210523;28;5676;-75
2022/12/18 10:46:30;;;;;;;;;;;;;;;7.07;58.23;98047.38;4209923;28;5756;-75
2022/12/18 10:48:35;;;;;;;;;;;;;;;7.10;58.02;98046.28;4216388;28;5740;-75
2022/12/18 10:50:38;;;;;;;;;;;;;;;7.10;57.94;98052.34;4215175;28;5378;-75
2022/12/18 10:53:04;;;;;;;;;;;;;;;7.10;57.87;98047.09;4209928;28;7174;-75
2022/12/18 10:55:17;;;;;;;;;;;;;;;7.08;58.01;98048.22;4233950;27;5720;-75
2022/12/18 10:57:35;;;;;;;;;;;;;;;7.08;57.77;98049.03;4212581;28;5914;-73
2022/12/18 10:59:52;;;;;;;;;;;;;;;7.08;57.76;98049.03;4214857;28;5795;-74
2022/12/18 11:01:58;;;;;;;;;;;;;;;7.11;57.82;98053.19;4213412;28;5822;-75
2022/12/18 11:04:08;;;;;;;;;;;;;;;7.11;57.74;98047.94;4207119;28;5839;-75
2022/12/18 11:06:14;;;;;;;;;;;;;;;7.11;57.90;98042.66;4210676;28;5085;-75
2022/12/18 11:08:22;;;;;;;;;;;;;;;7.14;57.63;98045.03;4209013;28;8419;-75
2022/12/18 11:10:31;;;;;;;;;;;;;;;7.15;57.37;98038.81;4211223;28;5962;-75
2022/12/18 11:12:34;;;;;;;;;;;;;;;7.15;57.46;98038.81;4215058;28;5751;-75
2022/12/18 11:14:46;;;;;;;;;;;;;;;7.17;57.51;98047.38;4212710;28;5828;-82
2022/12/18 11:16:50;;;;;;;;;;;;;;;7.19;57.14;98037.53;4212211;28;5755;-71
2022/12/18 11:19:33;;;;;;;;;;;;;;;7.17;57.23;98037.69;4214907;28;5770;-73
2022/12/18 11:21:40;;;;;;;;;;;;;;;7.16;57.31;98036.03;4208302;28;5689;-74
2022/12/18 11:23:48;;;;;;;;;;;;;;;7.16;57.14;98033.41;4206587;28;5810;-74
2022/12/18 11:25:57;;;;;;;;;;;;;;;7.16;57.02;98041.28;4215005;28;5768;-75
2022/12/18 11:28:02;;;;;;;;;;;;;;;7.15;57.15;98044.06;4211612;28;5696;-75
2022/12/18 11:30:14;;;;;;;;;;;;;;;7.17;57.10;98042.94;4212307;28;5065;-76
2022/12/18 11:32:30;;;;;;;;;;;;;;;7.17;57.05;98047.38;4211940;28;5813;-74
2022/12/18 11:34:35;;;;;;;;;;;;;;;7.18;56.92;98049.03;4204702;28;5716;-75
2022/12/18 11:36:41;;;;;;;;;;;;;;;7.19;57.08;98038.38;4212785;28;5655;-73
2022/12/18 11:38:47;;;;;;;;;;;;;;;7.23;56.72;98041.53;4211210;28;5712;-73
2022/12/18 11:40:57;;;;;;;;;;;;;;;7.24;56.73;98037.94;4208007;28;5713;-79
2022/12/18 11:43:09;;;;;;;;;;;;;;;7.28;56.74;98031.44;4213614;28;5774;-78
2022/12/18 11:45:26;;;;;;;;;;;;;;;7.29;56.75;98028.66;4209724;28;5691;-73
2022/12/18 11:47:35;;;;;;;;;;;;;;;7.28;56.65;98021.75;4217252;28;5652;-68
2022/12/18 11:49:42;;;;;;;;;;;;;;;7.30;56.58;98032.13;4207068;28;5792;-71
2022/12/18 11:51:54;;;;;;;;;;;;;;;7.31;56.49;98025.88;4204153;28;5723;-81
2022/12/18 11:53:57;;;;;;;;;;;;;;;7.31;56.61;98018.00;4211493;28;5915;-77
2022/12/18 11:56:06;;;;;;;;;;;;;;;7.29;56.69;98017.31;4210446;28;5760;-69
2022/12/18 11:58:17;;;;;;;;;;;;;;;7.31;56.62;98010.09;4215436;28;5814;-70
2022/12/18 12:00:22;;;;;;;;;;;;;;;7.34;56.66;97991.38;4215744;28;5676;-68
2022/12/18 12:02:42;;;;;;;;;;;;;;;7.35;56.33;97993.03;4200471;28;5793;-70
2022/12/18 12:05:15;;;;;;;;;;;;;;;7.34;56.61;97991.38;4206476;28;5891;-69
2022/12/18 12:07:34;;;;;;;;;;;;;;;7.34;56.64;97980.03;4207565;28;6371;-73
2022/12/18 12:09:48;;;;;;;;;;;;;;;7.33;56.44;97984.47;4206545;28;5764;-77
2022/12/18 12:12:01;;;;;;;;;;;;;;;7.31;56.44;97975.91;4201242;28;5888;-76
2022/12/18 12:14:21;;;;;;;;;;;;;;;7.31;56.47;97975.91;4215165;28;5818;-75
2022/12/18 12:16:30;;;;;;;;;;;;;;;7.33;56.43;97987.09;4202353;28;5692;-70
2022/12/18 12:18:45;;;;;;;;;;;;;;;7.29;56.30;97983.13;4202966;28;5739;-73
2022/12/18 12:20:59;;;;;;;;;;;;;;;7.30;56.30;97980.34;4212953;28;5718;-74
2022/12/18 12:23:13;;;;;;;;;;;;;;;7.30;56.37;97982.13;4214665;28;5834;-72
2022/12/18 12:25:34;;;;;;;;;;;;;;;7.27;56.40;97964.84;4215292;28;5089;-77
2022/12/18 12:27:47;;;;;;;;;;;;;;;7.25;56.23;97961.53;4221630;28;7799;-75
2022/12/18 12:30:01;;;;;;;;;;;;;;;7.26;56.23;97962.38;4214270;28;5895;-74
2022/12/18 12:32:16;;;;;;;;;;;;;;;7.29;56.34;97962.06;4215846;28;5846;-71
2022/12/18 12:34:23;;;;;;;;;;;;;;;7.29;56.20;97956.81;4206665;28;5660;-77
2022/12/18 12:36:38;;;;;;;;;;;;;;;7.28;56.12;97958.63;4206293;28;5767;-75
2022/12/18 12:38:49;;;;;;;;;;;;;;;7.32;56.19;97956.50;4213857;28;5868;-77
2022/12/18 12:41:00;;;;;;;;;;;;;;;7.35;56.01;97960.66;4215042;28;5664;-74
2022/12/18 12:43:16;;;;;;;;;;;;;;;7.34;56.23;97956.38;4209129;28;5776;-74
2022/12/18 12:45:27;;;;;;;;;;;;;;;7.36;55.96;97957.03;4214271;28;6006;-74
2022/12/18 12:47:38;;;;;;;;;;;;;;;7.36;56.21;97957.03;4208837;28;5676;-76
2022/12/18 12:49:47;;;;;;;;;;;;;;;7.36;55.90;97938.63;4205667;28;6158;-76
2022/12/18 12:51:59;;;;;;;;;;;;;;;7.34;56.02;97944.03;4215561;28;5656;-74
2022/12/18 12:54:05;;;;;;;;;;;;;;;7.35;55.99;97945.69;4215402;28;5758;-74
2022/12/18 12:56:11;;;;;;;;;;;;;;;7.38;56.04;97948.06;4219403;28;5759;-74
2022/12/18 12:58:22;;;;;;;;;;;;;;;7.38;56.04;97949.88;4214275;28;5767;-74
2022/12/18 13:00:28;;;;;;;;;;;;;;;7.36;55.94;97943.88;4207956;28;5778;-73
2022/12/18 13:02:37;;;;;;;;;;;;;;;7.39;56.28;97946.25;4206918;28;5804;-73
2022/12/18 13:04:46;;;;;;;;;;;;;;;7.39;56.05;97947.09;4214680;28;5679;-74
2022/12/18 13:07:02;;;;;;;;;;;;;;;7.38;55.93;97944.59;4195653;28;5749;-75
2022/12/18 13:09:04;;;;;;;;;;;;;;;7.40;56.11;97937.38;4215812;28;5656;-78
2022/12/18 13:14:01;;;;;;;;;;;;;;;7.40;55.87;97935.59;4211197;28;5727;-74
2022/12/18 13:16:07;;;;;;;;;;;;;;;7.38;55.84;97927.00;4213364;28;6524;-73
2022/12/18 13:18:19;;;;;;;;;;;;;;;7.40;56.11;97929.50;4213721;28;5663;-76
2022/12/18 13:20:33;;;;;;;;;;;;;;;7.40;56.00;97927.69;4206341;28;5774;-71
2022/12/18 13:22:39;;;;;;;;;;;;;;;7.41;56.00;97933.78;4215389;28;5759;-70
2022/12/18 13:24:42;;;;;;;;;;;;;;;7.40;56.05;97937.38;4214698;28;5808;-74
2022/12/18 13:26:45;;;;;;;;;;;;;;;7.39;56.01;97925.22;4212373;28;5713;-70
2022/12/18 13:28:53;;;;;;;;;;;;;;;7.40;55.94;97921.59;4210836;28;5679;-71
2022/12/18 13:30:57;;;;;;;;;;;;;;;7.43;56.18;97929.19;4215243;28;5771;-70
2022/12/18 13:33:38;;;;;;;;;;;;;;;7.45;55.93;97924.59;4209433;28;5701;-72
2022/12/18 13:36:03;;;;;;;;;;;;;;;7.46;55.95;97918.38;4212058;28;5762;-72
2022/12/18 13:38:22;;;;;;;;;;;;;;;7.43;55.95;97916.88;4207480;28;5890;-69
2022/12/18 13:40:59;;;;;;;;;;;;;;;7.45;55.93;97917.53;4205553;28;5675;-72
2022/12/18 13:43:13;;;;;;;;;;;;;;;7.46;55.96;97910.47;4202745;28;5747;-77
2022/12/18 13:45:53;;;;;;;;;;;;;;;7.46;55.92;97921.00;4206372;28;5676;-74
2022/12/18 13:47:56;;;;;;;;;;;;;;;7.45;55.95;97919.34;4213168;28;5739;-75
2022/12/18 13:49:59;;;;;;;;;;;;;;;7.45;55.83;97925.44;4216119;28;5671;-75
2022/12/18 13:52:03;;;;;;;;;;;;;;;7.44;55.69;97923.78;4216992;28;5914;-75
2022/12/18 13:54:20;;;;;;;;;;;;;;;7.45;55.97;97925.44;4217042;28;5664;-74
2022/12/18 13:56:25;;;;;;;;;;;;;;;7.46;55.85;97921.81;4216919;28;5735;-75
2022/12/18 13:58:29;;;;;;;;;;;;;;;7.46;55.87;97918.38;4217119;28;5751;-73
2022/12/18 14:00:32;;;;;;;;;;;;;;;7.47;55.90;97923.47;4217164;28;5081;-73
2022/12/18 14:02:35;;;;;;;;;;;;;;;7.48;56.03;97922.53;4217516;28;7715;-74
2022/12/18 14:04:37;;;;;;;;;;;;;;;7.50;56.00;97917.94;4220083;28;5089;-74
2022/12/18 14:06:42;;;;;;;;;;;;;;;7.48;55.88;97908.56;4219874;28;7721;-74
2022/12/18 14:08:56;;;;;;;;;;;;;;;7.51;55.88;97908.25;4219958;28;5672;-74
2022/12/18 14:11:03;;;;;;;;;;;;;;;7.48;55.69;97913.81;4216953;28;5163;-74
2022/12/18 14:13:10;;;;;;;;;;;;;;;7.45;55.86;97914.91;4208418;28;5726;-74
2022/12/18 14:15:26;;;;;;;;;;;;;;;7.44;55.73;97913.25;4218295;28;6272;-74
2022/12/18 14:17:28;;;;;;;;;;;;;;;7.49;55.78;97916.28;4211883;28;5692;-74
2022/12/18 14:19:32;;;;;;;;;;;;;;;7.51;55.86;97918.78;4217594;28;5623;-75
2022/12/18 14:21:35;;;;;;;;;;;;;;;7.50;55.73;97915.31;4219907;28;5821;-74
2022/12/18 14:23:40;;;;;;;;;;;;;;;7.49;55.80;97918.09;4219659;28;5882;-73
2022/12/18 14:25:47;;;;;;;;;;;;;;;7.47;55.91;97918.22;4219621;28;5667;-73
2022/12/18 14:27:54;;;;;;;;;;;;;;;7.48;55.77;97924.34;4219297;28;5672;-74
2022/12/18 14:29:58;;;;;;;;;;;;;;;7.48;55.65;97922.53;4217686;28;5608;-75
2022/12/18 14:32:12;;;;;;;;;;;;;;;7.49;55.90;97929.44;4218873;28;5803;-74
2022/12/18 14:34:19;;;;;;;;;;;;;;;7.48;55.72;97929.59;4219442;28;5841;-74
2022/12/18 14:36:24;;;;;;;;;;;;;;;7.47;55.72;97926.13;4211142;28;6333;-74
2022/12/18 14:38:29;;;;;;;;;;;;;;;7.48;56.01;97925.16;4219350;28;5759;-74
2022/12/18 14:40:32;;;;;;;;;;;;;;;7.49;55.83;97932.09;4219543;28;5695;-74
2022/12/18 14:42:34;;;;;;;;;;;;;;;7.48;55.70;97930.44;4219057;28;5731;-74
2022/12/18 14:44:39;;;;;;;;;;;;;;;7.49;55.61;97926.81;4218670;28;5680;-74
2022/12/18 14:47:01;;;;;;;;;;;;;;;7.50;55.86;97928.47;4218575;28;5672;-74
2022/12/18 14:49:19;;;;;;;;;;;;;;;7.49;55.82;97929.44;4219089;28;5664;-73
2022/12/18 14:51:23;;;;;;;;;;;;;;;7.50;55.68;97933.75;4217925;28;5836;-74
2022/12/18 14:53:34;;;;;;;;;;;;;;;7.50;55.99;97935.53;4211242;28;5763;-75
2022/12/18 14:55:37;;;;;;;;;;;;;;;7.49;56.05;97929.44;4218815;28;5692;-75
2022/12/18 14:57:43;;;;;;;;;;;;;;;7.48;55.92;97927.81;4218975;28;5902;-74
2022/12/18 14:59:50;;;;;;;;;;;;;;;7.48;55.97;97927.81;4218809;28;5675;-74
2022/12/18 15:02:00;;;;;;;;;;;;;;;7.50;56.05;97919.75;4218719;28;5672;-73
2022/12/18 15:04:06;;;;;;;;;;;;;;;7.49;55.97;97921.56;4217606;28;5721;-74
2022/12/18 15:06:25;;;;;;;;;;;;;;;7.49;55.96;97926.81;4218546;28;5664;-74
2022/12/18 15:08:31;;;;;;;;;;;;;;;7.50;55.98;97938.19;4211373;28;5676;-74
2022/12/18 15:10:35;;;;;;;;;;;;;;;7.49;55.96;97934.72;4218654;28;5771;-74
2022/12/18 15:12:40;;;;;;;;;;;;;;;7.49;55.96;97937.34;4218750;28;5671;-75
2022/12/18 15:14:43;;;;;;;;;;;;;;;7.49;56.08;97929.44;4218421;28;5849;-74
2022/12/18 15:16:54;;;;;;;;;;;;;;;7.48;55.82;97927.81;4218355;28;5815;-74
2022/12/18 15:18:57;;;;;;;;;;;;;;;7.48;55.84;97940.97;4218881;28;5684;-74
2022/12/18 15:21:08;;;;;;;;;;;;;;;7.47;55.88;97936.63;4218625;28;5778;-75
2022/12/18 15:23:15;;;;;;;;;;;;;;;7.46;55.80;97934.97;4218692;28;5680;-75
2022/12/18 15:25:32;;;;;;;;;;;;;;;7.46;55.92;97942.88;4218446;28;5802;-75
2022/12/18 15:27:37;;;;;;;;;;;;;;;7.46;55.73;97948.13;4210498;28;5709;-75
2022/12/18 15:29:43;;;;;;;;;;;;;;;7.46;55.97;97948.13;4217919;28;5676;-74
2022/12/18 15:31:59;;;;;;;;;;;;;;;7.45;56.07;97932.50;4218499;28;5794;-74
2022/12/18 15:34:14;;;;;;;;;;;;;;;7.47;55.85;97946.34;4218147;28;6582;-73
2022/12/18 15:36:18;;;;;;;;;;;;;;;7.45;55.93;97943.84;4218359;28;5661;-74
2022/12/18 15:38:28;;;;;;;;;;;;;;;7.46;56.00;97942.03;4218212;28;5664;-74
2022/12/18 15:40:31;;;;;;;;;;;;;;;7.43;55.60;97932.66;4218074;28;5766;-75
2022/12/18 15:44:54;;;;;;;;;;;;;;;7.40;55.85;97945.28;4217950;28;5766;-75
2022/12/18 15:46:59;;;;;;;;;;;;;;;7.40;55.93;97942.66;4217536;28;5668;-74
2022/12/18 15:49:03;;;;;;;;;;;;;;;7.39;55.77;97941.81;4217884;28;5093;-75
2022/12/18 15:51:12;;;;;;;;;;;;;;;7.40;55.89;97947.91;4217914;28;5687;-74
2022/12/18 15:53:15;;;;;;;;;;;;;;;7.37;55.88;97938.50;4218058;28;5732;-74
2022/12/18 15:57:41;;;;;;;;;;;;;;;7.35;55.59;97937.81;4217709;28;5902;-74
2022/12/18 15:59:43;;;;;;;;;;;;;;;7.34;55.77;97943.22;4217922;28;5755;-75
2022/12/18 16:01:48;;;;;;;;;;;;;;;7.31;55.80;97944.34;4218061;28;6574;-75
2022/12/18 16:03:53;;;;;;;;;;;;;;;7.33;55.84;97952.91;4217426;28;6133;-74
2022/12/18 16:05:58;;;;;;;;;;;;;;;7.30;55.90;97943.50;4213920;28;6699;-75
2022/12/18 16:08:02;;;;;;;;;;;;;;;7.28;55.90;97944.63;4214858;28;6350;-75
2022/12/18 16:10:05;;;;;;;;;;;;;;;7.30;55.63;97947.94;4217432;28;5657;-75
2022/12/18 16:12:16;;;;;;;;;;;;;;;7.29;55.71;97943.66;4217215;28;5687;-74
2022/12/18 16:14:20;;;;;;;;;;;;;;;7.30;55.72;97943.50;4217764;28;5775;-75
2022/12/18 16:16:23;;;;;;;;;;;;;;;7.31;55.52;97936.44;4208903;28;5656;-75
2022/12/18 16:18:27;;;;;;;;;;;;;;;7.30;55.48;97942.69;4217603;28;5767;-75
2022/12/18 16:20:31;;;;;;;;;;;;;;;7.30;55.83;97937.41;4217279;28;5684;-75
2022/12/18 16:22:34;;;;;;;;;;;;;;;7.32;55.58;97945.16;4217406;28;5787;-74
2022/12/18 16:24:37;;;;;;;;;;;;;;;7.32;55.65;97939.91;4215813;28;5780;-75
2022/12/18 16:26:41;;;;;;;;;;;;;;;7.32;55.54;97934.63;4216890;28;5731;-74
2022/12/18 16:28:44;;;;;;;;;;;;;;;7.33;55.64;97926.59;4217314;28;5085;-75
2022/12/18 16:30:50;;;;;;;;;;;;;;;7.32;55.63;97930.22;4209098;28;5664;-74
2022/12/18 16:32:53;;;;;;;;;;;;;;;7.32;55.50;97937.28;4217132;28;5826;-74
2022/12/18 16:35:01;;;;;;;;;;;;;;;7.32;55.74;97951.25;4217257;28;5668;-75
2022/12/18 16:37:09;;;;;;;;;;;;;;;7.31;55.50;97952.22;4217309;28;5701;-74
2022/12/18 16:39:12;;;;;;;;;;;;;;;7.33;55.70;97950.28;4217649;28;5696;-74
2022/12/18 16:41:31;;;;;;;;;;;;;;;7.32;55.59;97951.25;4217133;28;5699;-75
2022/12/18 16:43:34;;;;;;;;;;;;;;;7.29;55.34;97947.13;4217400;28;5660;-74
2022/12/18 16:45:37;;;;;;;;;;;;;;;7.30;55.73;97958.47;4217115;28;5680;-74
2022/12/18 16:47:42;;;;;;;;;;;;;;;7.27;55.48;97958.75;4216905;28;5782;-73
2022/12/18 16:49:45;;;;;;;;;;;;;;;7.27;55.40;97942.97;4216974;28;5783;-73
2022/12/18 16:51:48;;;;;;;;;;;;;;;7.28;55.61;97945.47;4215700;28;5728;-74
2022/12/18 16:53:55;;;;;;;;;;;;;;;7.27;55.37;97951.69;4216874;28;5772;-75
2022/12/18 16:55:57;;;;;;;;;;;;;;;7.27;55.46;97956.13;4217054;28;5732;-74
2022/12/18 16:58:00;;;;;;;;;;;;;;;7.27;55.60;97956.13;4216768;28;5696;-75
2022/12/18 17:00:04;;;;;;;;;;;;;;;7.29;55.56;97956.81;4216804;28;5664;-74
2022/12/18 17:02:14;;;;;;;;;;;;;;;7.29;55.25;97952.38;4216339;28;6151;-74
2022/12/18 17:04:18;;;;;;;;;;;;;;;7.30;55.30;97956.66;4216790;28;5727;-74
2022/12/18 17:06:22;;;;;;;;;;;;;;;7.28;55.54;97947.25;4216618;28;5818;-74
2022/12/18 17:08:24;;;;;;;;;;;;;;;7.31;55.32;97944.34;4208882;28;5774;-74
2022/12/18 17:10:34;;;;;;;;;;;;;;;7.32;55.47;97948.63;4216284;28;5667;-75
2022/12/18 17:12:37;;;;;;;;;;;;;;;7.34;55.60;97943.22;4216868;28;5796;-74
2022/12/18 17:14:40;;;;;;;;;;;;;;;7.32;55.49;97940.72;4216291;28;5669;-74
2022/12/18 17:16:43;;;;;;;;;;;;;;;7.32;55.31;97930.22;4216388;28;5861;-74
2022/12/18 17:18:46;;;;;;;;;;;;;;;7.34;55.47;97930.88;4216363;28;5676;-74
2022/12/18 17:20:49;;;;;;;;;;;;;;;7.38;55.45;97923.56;4215259;28;5596;-75
2022/12/18 17:22:51;;;;;;;;;;;;;;;7.39;55.40;97926.03;4208076;28;5691;-75
2022/12/18 17:24:54;;;;;;;;;;;;;;;7.39;55.39;97915.50;4216734;28;5798;-75
2022/12/18 17:26:59;;;;;;;;;;;;;;;7.44;55.31;97934.31;4215522;28;5766;-75
2022/12/18 17:29:02;;;;;;;;;;;;;;;7.44;55.26;97921.16;4216545;28;5676;-75
2022/12/18 17:31:11;;;;;;;;;;;;;;;7.44;55.40;97921.16;4216728;28;5680;-74
2022/12/18 17:33:15;;;;;;;;;;;;;;;7.46;55.15;97929.72;4216204;28;5692;-74
2022/12/18 17:35:17;;;;;;;;;;;;;;;7.48;55.38;97943.59;4216844;28;5768;-74
2022/12/18 17:37:20;;;;;;;;;;;;;;;7.45;55.15;97953.56;4217783;28;5751;-74
2022/12/18 17:39:23;;;;;;;;;;;;;;;7.43;55.09;97956.34;4220012;28;5915;-75
2022/12/18 17:41:27;;;;;;;;;;;;;;;7.42;55.23;97967.84;4211607;28;5689;-76
2022/12/18 17:43:31;;;;;;;;;;;;;;;7.43;55.36;97968.66;4220122;28;5692;-75
2022/12/18 17:45:36;;;;;;;;;;;;;;;7.45;55.30;97966.72;4219559;28;5680;-75
2022/12/18 17:47:39;;;;;;;;;;;;;;;7.45;55.42;97971.97;4220777;28;5843;-74
2022/12/18 17:49:41;;;;;;;;;;;;;;;7.42;55.09;97967.84;4207815;28;5854;-74
2022/12/18 17:51:45;;;;;;;;;;;;;;;7.42;55.11;97970.47;4211810;28;5659;-74
2022/12/18 17:53:50;;;;;;;;;;;;;;;7.39;55.33;97968.13;4206753;28;5790;-74
2022/12/18 17:55:55;;;;;;;;;;;;;;;7.41;55.18;97966.19;4210417;28;5689;-77
2022/12/18 17:58:00;;;;;;;;;;;;;;;7.42;55.28;97972.25;4204952;28;5827;-77
2022/12/18 18:00:05;;;;;;;;;;;;;;;7.41;55.32;97955.66;4211793;28;6941;-77
2022/12/18 18:02:13;;;;;;;;;;;;;;;7.41;55.37;97945.13;4208601;28;5765;-75
2022/12/18 18:04:17;;;;;;;;;;;;;;;7.36;55.27;97922.84;4210318;28;5849;-74
2022/12/18 18:06:22;;;;;;;;;;;;;;;7.30;55.31;97924.28;4224451;27;5600;-76
2022/12/18 18:08:26;;;;;;;;;;;;;;;7.27;55.12;97912.25;4211872;28;5713;-78
2022/12/18 18:10:29;;;;;;;;;;;;;;;7.35;55.36;97929.91;4217441;28;5723;-77
2022/12/18 18:14:55;;;;;;;;;;;;;;;7.39;55.21;97952.34;4215283;28;7783;-74
2022/12/18 18:17:00;;;;;;;;;;;;;;;7.33;55.20;97947.66;4208626;28;5682;-75
2022/12/18 18:19:09;;;;;;;;;;;;;;;7.25;55.49;97940.50;4213156;28;5733;-75
2022/12/18 18:21:11;;;;;;;;;;;;;;;7.33;55.39;97952.91;4215676;28;5874;-74
2022/12/18 18:23:16;;;;;;;;;;;;;;;7.36;55.08;97962.31;4216450;28;5219;-75
2022/12/18 18:25:19;;;;;;;;;;;;;;;7.37;55.34;97964.00;4212512;28;5693;-74
2022/12/18 18:27:23;;;;;;;;;;;;;;;7.36;55.07;97955.28;4207720;28;5790;-75
2022/12/18 18:29:29;;;;;;;;;;;;;;;7.35;55.17;97961.47;4207893;28;5701;-75
2022/12/18 18:31:33;;;;;;;;;;;;;;;7.35;55.30;97956.22;4209476;28;5802;-75
2022/12/18 18:33:43;;;;;;;;;;;;;;;7.34;55.27;97957.19;4207834;28;5826;-74
2022/12/18 18:35:46;;;;;;;;;;;;;;;7.35;55.06;97958.03;4204326;28;5924;-73
2022/12/18 18:37:56;;;;;;;;;;;;;;;7.34;55.30;97956.38;4205163;28;5960;-75
2022/12/18 18:40:02;;;;;;;;;;;;;;;7.33;55.03;97962.59;4209559;28;5668;-76
2022/12/18 18:42:08;;;;;;;;;;;;;;;7.32;55.17;97953.88;4215513;28;5703;-77
2022/12/18 18:44:11;;;;;;;;;;;;;;;7.31;55.30;97960.13;4209904;28;5768;-75
2022/12/18 18:46:15;;;;;;;;;;;;;;;7.30;55.12;97956.66;4206308;28;5907;-83
2022/12/18 18:48:18;;;;;;;;;;;;;;;7.32;55.21;97947.78;4208060;28;5686;-82
2022/12/18 18:50:22;;;;;;;;;;;;;;;7.30;55.13;97948.78;4208492;28;5684;-76
2022/12/18 18:52:25;;;;;;;;;;;;;;;7.29;55.04;97952.38;4210018;28;5709;-74
2022/12/18 18:54:29;;;;;;;;;;;;;;;7.29;55.12;97947.13;4205214;28;5861;-76
2022/12/18 18:56:33;;;;;;;;;;;;;;;7.28;55.16;97940.19;4208155;28;6614;-76
2022/12/18 18:58:56;;;;;;;;;;;;;;;7.32;55.06;97951.25;4206594;28;5713;-77
2022/12/18 19:01:10;;;;;;;;;;;;;;;7.32;54.94;97956.50;4202582;28;5822;-75
2022/12/18 19:03:13;;;;;;;;;;;;;;;7.33;55.06;97967.88;4207505;28;6011;-74
2022/12/18 19:05:16;;;;;;;;;;;;;;;7.33;55.04;97970.50;4201009;28;5821;-80
2022/12/18 19:07:20;;;;;;;;;;;;;;;7.31;54.93;97981.16;4207622;28;5672;-76
2022/12/18 19:09:32;;;;;;;;;;;;;;;7.34;55.15;97991.38;4203573;28;5700;-77
2022/12/18 19:13:56;;;;;;;;;;;;;;;7.35;55.08;97968.53;4201868;28;5800;-74
2022/12/18 19:16:04;;;;;;;;;;;;;;;7.34;54.88;97978.22;4206995;28;5751;-75
2022/12/18 19:18:07;;;;;;;;;;;;;;;7.35;54.93;97979.91;4204066;28;5767;-74
2022/12/18 19:20:10;;;;;;;;;;;;;;;7.35;54.88;97966.75;4205199;28;5754;-76
2022/12/18 19:22:14;;;;;;;;;;;;;;;7.38;55.07;97955.94;4202810;28;5753;-74
2022/12/18 19:24:18;;;;;;;;;;;;;;;7.41;54.89;97944.31;4207189;28;5792;-76
2022/12/18 19:26:24;;;;;;;;;;;;;;;7.41;55.11;97950.38;4203881;28;5923;-74
2022/12/18 19:28:30;;;;;;;;;;;;;;;7.39;55.00;97946.25;4205271;28;5754;-78
2022/12/18 19:30:32;;;;;;;;;;;;;;;7.37;55.01;97956.94;4204036;28;5828;-73
2022/12/18 19:32:35;;;;;;;;;;;;;;;7.38;55.02;97955.94;4206131;28;5708;-79
2022/12/18 19:34:38;;;;;;;;;;;;;;;7.38;54.64;97948.06;4205963;28;5776;-79
2022/12/18 19:36:41;;;;;;;;;;;;;;;7.39;54.94;97949.72;4211789;28;5906;-79
2022/12/18 19:38:44;;;;;;;;;;;;;;;7.39;54.83;97941.81;4210103;28;5871;-79
2022/12/18 19:40:49;;;;;;;;;;;;;;;7.41;55.01;97939.88;4207204;28;5771;-78
2022/12/18 19:42:52;;;;;;;;;;;;;;;7.43;54.88;97953.69;4206847;28;5642;-79
2022/12/18 19:44:55;;;;;;;;;;;;;;;7.45;54.84;97954.38;4214875;28;5759;-78
2022/12/18 19:46:59;;;;;;;;;;;;;;;7.45;54.93;97957.00;4216628;28;5668;-77
2022/12/18 19:49:03;;;;;;;;;;;;;;;7.45;54.92;97950.91;4221461;28;5634;-76
2022/12/18 19:51:07;;;;;;;;;;;;;;;7.43;54.90;97948.44;4210861;28;5854;-77
2022/12/18 19:53:10;;;;;;;;;;;;;;;7.43;54.86;97943.19;4213159;28;5747;-79
2022/12/18 19:55:14;;;;;;;;;;;;;;;7.46;55.12;97955.19;4217389;28;5857;-78
2022/12/18 19:57:18;;;;;;;;;;;;;;;7.46;54.98;97963.94;4218085;28;5747;-78
2022/12/18 19:59:21;;;;;;;;;;;;;;;7.46;55.01;97961.28;4214278;28;5834;-79
2022/12/18 20:01:25;;;;;;;;;;;;;;;7.47;54.79;97954.22;4214889;28;5779;-73
2022/12/18 20:03:29;;;;;;;;;;;;;;;7.45;54.84;97959.63;4215940;28;6666;-73
2022/12/18 20:05:34;;;;;;;;;;;;;;;7.43;55.16;97953.69;4217073;28;5676;-77
2022/12/18 20:07:39;;;;;;;;;;;;;;;7.47;55.14;97960.31;4217707;28;5807;-78
2022/12/18 20:09:44;;;;;;;;;;;;;;;7.47;55.20;97965.59;4217152;28;5770;-76
2022/12/18 20:11:49;;;;;;;;;;;;;;;7.47;54.97;97960.31;4204799;28;5848;-74
2022/12/18 20:13:53;;;;;;;;;;;;;;;7.46;54.82;97945.50;4211685;28;5082;-69
2022/12/18 20:15:56;;;;;;;;;;;;;;;7.45;54.84;97946.47;4212985;28;5865;-70
2022/12/18 20:17:59;;;;;;;;;;;;;;;7.45;54.92;97943.84;4215908;28;5754;-72
2022/12/18 20:20:01;;;;;;;;;;;;;;;7.46;54.87;97942.88;4210342;28;5836;-74
2022/12/18 20:22:05;;;;;;;;;;;;;;;7.48;55.07;97946.22;4212914;28;5795;-73
2022/12/18 20:24:08;;;;;;;;;;;;;;;7.49;55.14;97926.81;4207799;28;5687;-75
2022/12/18 20:26:11;;;;;;;;;;;;;;;7.51;54.89;97935.38;4212732;28;5763;-77
2022/12/18 20:28:14;;;;;;;;;;;;;;;7.52;55.22;97938.84;4216303;28;6467;-78
2022/12/18 20:30:19;;;;;;;;;;;;;;;7.51;54.87;97932.75;4211263;28;5780;-80
2022/12/18 20:32:22;;;;;;;;;;;;;;;7.52;54.87;97931.78;4214828;28;5739;-75
2022/12/18 20:34:28;;;;;;;;;;;;;;;7.54;54.95;97929.00;4221618;28;5637;-80
2022/12/18 20:36:31;;;;;;;;;;;;;;;7.57;55.04;97929.53;4223215;28;5672;-81
2022/12/18 20:38:37;;;;;;;;;;;;;;;7.58;55.09;97920.66;4223131;28;5850;-81
2022/12/18 20:40:41;;;;;;;;;;;;;;;7.59;54.97;97918.88;4225182;28;6341;-74
2022/12/18 20:42:44;;;;;;;;;;;;;;;7.58;54.71;97919.81;4227189;28;5676;-74
2022/12/18 20:44:50;;;;;;;;;;;;;;;7.59;55.15;97930.22;4227717;28;5735;-80
2022/12/18 20:46:56;;;;;;;;;;;;;;;7.60;55.14;97936.31;4245300;27;5776;-74
2022/12/18 20:48:59;;;;;;;;;;;;;;;7.61;55.14;97934.53;4217464;28;5827;-75
2022/12/18 20:51:05;;;;;;;;;;;;;;;7.62;55.24;97936.19;4215673;28;5656;-76
2022/12/18 20:53:08;;;;;;;;;;;;;;;7.62;55.19;97934.38;4216559;28;5894;-75
2022/12/18 20:55:10;;;;;;;;;;;;;;;7.63;55.17;97935.19;4217280;28;5858;-76
2022/12/18 20:57:16;;;;;;;;;;;;;;;7.65;55.14;97926.16;4214825;28;5810;-75
2022/12/18 20:59:21;;;;;;;;;;;;;;;7.65;55.13;97923.53;4216565;28;5711;-76